createdAt,value
2018-08-23T00:02:24.035Z,18.20
2018-08-23T00:07:27.255Z,18.20
2018-08-23T00:12:41.931Z,18.20
2018-08-23T00:17:46.534Z,18.20
2018-08-23T00:22:50.630Z,18.10
2018-08-23T00:27:53.859Z,18.00
2018-08-23T00:32:58.904Z,18.00
2018-08-23T00:38:03.071Z,17.90
2018-08-23T00:43:08.459Z,17.80
2018-08-23T00:48:11.687Z,17.80
2018-08-23T00:53:15.618Z,17.70
2018-08-23T00:58:18.826Z,17.70
2018-08-23T01:03:22.075Z,17.60
2018-08-23T01:08:30.679Z,17.50
2018-08-23T01:13:34.106Z,17.40
2018-08-23T01:18:37.331Z,17.20
2018-08-23T01:23:42.199Z,17.10
2018-08-23T01:28:45.434Z,17.10
2018-08-23T01:33:48.663Z,16.90
2018-08-23T01:38:51.869Z,17.00
2018-08-23T01:43:55.111Z,17.00
2018-08-23T01:48:58.674Z,16.90
2018-08-23T01:54:01.924Z,16.80
2018-08-23T01:59:05.128Z,16.70
2018-08-23T02:04:08.315Z,16.70
2018-08-23T02:09:11.531Z,16.70
2018-08-23T02:14:14.728Z,16.60
2018-08-23T02:19:17.917Z,16.60
2018-08-23T02:24:25.530Z,16.40
2018-08-23T02:29:41.913Z,16.30
2018-08-23T02:34:46.362Z,16.30
2018-08-23T02:39:49.564Z,16.30
2018-08-23T02:44:53.024Z,16.30
2018-08-23T02:49:56.228Z,16.30
2018-08-23T02:54:59.424Z,16.20
2018-08-23T03:00:02.637Z,16.10
2018-08-23T03:05:05.813Z,16.20
2018-08-23T03:10:09.006Z,16.30
2018-08-23T03:15:12.186Z,16.20
2018-08-23T03:20:16.538Z,16.00
2018-08-23T03:25:21.797Z,16.10
2018-08-23T03:30:25.250Z,16.00
2018-08-23T03:35:28.447Z,16.00
2018-08-23T03:40:31.645Z,16.10
2018-08-23T03:45:34.874Z,16.00
2018-08-23T03:50:43.684Z,16.00
2018-08-23T03:56:10.512Z,16.00
2018-08-23T04:02:15.290Z,15.90
2018-08-23T04:07:18.574Z,15.70
2018-08-23T04:12:21.756Z,15.60
2018-08-23T04:17:24.934Z,15.60
2018-08-23T04:22:28.109Z,15.60
2018-08-23T04:27:31.287Z,15.70
2018-08-23T04:32:42.088Z,15.90
2018-08-23T04:37:45.242Z,16.10
2018-08-23T04:42:48.425Z,15.90
2018-08-23T04:47:57.106Z,15.60
2018-08-23T04:53:00.386Z,15.50
2018-08-23T04:58:04.327Z,15.60
2018-08-23T05:03:07.629Z,15.70
2018-08-23T05:08:10.837Z,15.90
2018-08-23T05:13:14.070Z,16.40
2018-08-23T05:18:17.294Z,16.90
2018-08-23T05:23:20.631Z,17.50
2018-08-23T05:28:23.771Z,18.30
2018-08-23T05:33:26.995Z,18.90
2018-08-23T05:38:30.205Z,19.80
2018-08-23T05:43:33.435Z,20.40
2018-08-23T05:48:36.646Z,20.60
2018-08-23T05:53:40.798Z,21.10
2018-08-23T05:58:43.999Z,21.90
2018-08-23T06:03:47.227Z,22.40
2018-08-23T06:08:54.702Z,22.80
2018-08-23T06:13:57.917Z,23.20
2018-08-23T06:19:01.148Z,23.20
2018-08-23T06:24:07.462Z,23.70
2018-08-23T06:29:13.434Z,24.30
2018-08-23T06:34:16.660Z,25.30
2018-08-23T06:39:19.843Z,25.70
2018-08-23T06:44:23.431Z,25.80
2018-08-23T06:49:26.653Z,26.40
2018-08-23T06:54:29.887Z,26.90
2018-08-23T06:59:33.143Z,26.90
2018-08-23T07:04:36.376Z,27.00
2018-08-23T07:09:41.480Z,26.90
2018-08-23T07:14:45.902Z,26.90
2018-08-23T07:19:49.558Z,28.20
2018-08-23T07:24:54.230Z,29.40
2018-08-23T07:29:58.586Z,29.40
2018-08-23T07:35:07.498Z,29.80
2018-08-23T07:40:18.264Z,29.30
2018-08-23T07:45:21.477Z,29.70
2018-08-23T07:50:24.695Z,30.40
2018-08-23T07:55:27.900Z,30.10
2018-08-23T08:00:36.543Z,30.80
2018-08-23T08:05:42.341Z,31.30
2018-08-23T08:10:46.128Z,31.40
2018-08-23T08:15:49.343Z,32.20
2018-08-23T08:21:01.427Z,31.90
2018-08-23T08:26:04.711Z,31.10
2018-08-23T08:31:07.971Z,29.70
2018-08-23T08:36:11.492Z,28.50
2018-08-23T08:41:14.727Z,28.80
2018-08-23T08:46:17.941Z,28.40
2018-08-23T08:51:23.690Z,27.60
2018-08-23T08:56:33.958Z,27.50
2018-08-23T09:01:37.166Z,28.50
2018-08-23T09:06:44.421Z,27.60
2018-08-23T09:11:47.599Z,27.00
2018-08-23T09:16:50.787Z,26.30
2018-08-23T09:22:03.693Z,26.40
2018-08-23T09:27:16.555Z,26.50
2018-08-23T09:32:29.403Z,27.80
2018-08-23T09:37:36.223Z,28.50
2018-08-23T09:42:39.487Z,27.50
2018-08-23T09:47:42.728Z,26.70
2018-08-23T09:52:47.994Z,26.10
2018-08-23T09:57:51.233Z,26.30
2018-08-23T10:02:59.775Z,27.20
2018-08-23T10:08:08.542Z,26.90
2018-08-23T10:13:17.242Z,26.90
2018-08-23T10:18:26.922Z,26.60
2018-08-23T10:23:30.143Z,26.40
2018-08-23T10:28:39.144Z,26.10
2018-08-23T10:33:42.318Z,25.80
2018-08-23T10:38:45.555Z,25.80
2018-08-23T10:43:49.163Z,26.10
2018-08-23T10:48:52.335Z,26.10
2018-08-23T10:53:55.545Z,26.40
2018-08-23T10:58:58.818Z,26.60
2018-08-23T11:04:06.683Z,26.90
2018-08-23T11:09:15.270Z,27.30
2018-08-23T11:14:23.935Z,27.80
2018-08-23T11:19:32.648Z,27.10
2018-08-23T11:24:36.059Z,27.00
2018-08-23T11:29:39.475Z,26.90
2018-08-23T11:34:42.574Z,26.30
2018-08-23T11:39:45.824Z,26.20
2018-08-23T11:44:49.052Z,26.00
2018-08-23T11:49:52.385Z,26.60
2018-08-23T11:54:55.691Z,26.60
2018-08-23T11:59:58.933Z,26.90
2018-08-23T12:05:02.196Z,27.10
2018-08-23T12:10:06.014Z,27.00
2018-08-23T12:15:09.367Z,26.90
2018-08-23T12:20:12.620Z,26.70
2018-08-23T12:25:16.668Z,26.90
2018-08-23T12:30:20.206Z,26.40
2018-08-23T12:35:23.578Z,25.70
2018-08-23T12:40:33.028Z,26.00
2018-08-23T12:45:41.628Z,26.10
2018-08-23T12:50:45.059Z,25.80
2018-08-23T12:55:48.257Z,25.60
2018-08-23T13:00:51.468Z,25.80
2018-08-23T13:05:54.655Z,25.80
2018-08-23T13:10:57.854Z,26.00
2018-08-23T13:16:01.005Z,26.40
2018-08-23T13:21:04.220Z,26.10
2018-08-23T13:26:07.436Z,25.80
2018-08-23T13:31:10.818Z,26.30
2018-08-23T13:36:14.188Z,26.40
2018-08-23T13:41:17.294Z,26.40
2018-08-23T13:46:20.828Z,26.10
2018-08-23T13:51:24.149Z,26.60
2018-08-23T13:56:27.389Z,26.80
2018-08-23T14:01:30.615Z,26.80
2018-08-23T14:06:33.955Z,26.60
2018-08-23T14:11:37.178Z,26.50
2018-08-23T14:16:40.456Z,26.70
2018-08-23T14:21:43.973Z,27.00
2018-08-23T14:26:47.234Z,27.40
2018-08-23T14:31:50.488Z,27.40
2018-08-23T14:36:53.705Z,27.20
2018-08-23T15:42:59.781Z,25.80
2018-08-23T15:48:03.069Z,26.00
2018-08-23T15:53:06.293Z,25.80
2018-08-23T15:58:09.527Z,25.90
2018-08-23T16:03:12.758Z,25.80
2018-08-23T16:08:16.040Z,25.90
2018-08-23T16:13:19.239Z,25.90
2018-08-23T16:18:27.982Z,26.10
2018-08-23T16:23:31.231Z,26.00
2018-08-23T16:28:34.510Z,26.00
2018-08-23T16:33:38.238Z,25.80
2018-08-23T16:38:41.459Z,25.70
2018-08-23T16:43:44.690Z,25.40
2018-08-23T16:48:47.908Z,25.10
2018-08-23T16:53:51.127Z,25.00
2018-08-23T16:58:54.639Z,24.70
2018-08-23T17:03:58.320Z,24.50
2018-08-23T17:09:01.556Z,24.30
2018-08-23T17:14:04.756Z,24.40
2018-08-23T17:19:07.999Z,24.30
2018-08-23T17:24:11.208Z,24.20
2018-08-23T17:29:14.479Z,24.10
2018-08-23T17:34:17.679Z,23.90
2018-08-23T17:39:20.886Z,23.80
2018-08-23T17:44:24.140Z,23.70
2018-08-23T17:49:27.415Z,23.60
2018-08-23T17:54:30.563Z,23.50
2018-08-23T17:59:34.707Z,23.40
2018-08-23T18:04:37.902Z,23.20
2018-08-23T18:09:41.066Z,22.90
2018-08-23T18:14:44.259Z,22.70
2018-08-23T18:19:47.440Z,22.70
2018-08-23T18:24:50.703Z,22.60
2018-08-23T18:29:53.916Z,22.60
2018-08-23T18:34:57.171Z,22.40
2018-08-23T18:40:00.272Z,22.00
2018-08-23T18:45:03.439Z,21.60
2018-08-23T18:50:06.639Z,21.40
2018-08-23T18:55:09.839Z,21.20
2018-08-23T19:00:13.080Z,20.90
2018-08-23T19:05:16.205Z,20.80
2018-08-23T19:10:19.364Z,20.80
2018-08-23T19:15:27.942Z,20.60
2018-08-23T19:20:31.144Z,20.60
2018-08-23T19:25:34.378Z,20.30
2018-08-23T19:30:37.552Z,20.30
2018-08-23T19:35:40.722Z,20.10
2018-08-23T19:40:43.904Z,19.90
2018-08-23T19:45:52.670Z,19.80
2018-08-23T19:50:55.855Z,19.80
2018-08-23T19:55:59.019Z,19.80
2018-08-23T20:01:02.235Z,19.90
2018-08-23T20:06:05.458Z,20.00
2018-08-23T20:11:08.680Z,20.00
2018-08-23T20:16:11.959Z,20.00
2018-08-23T20:21:15.814Z,20.20
2018-08-23T20:26:19.036Z,20.40
2018-08-23T20:31:22.243Z,20.60
2018-08-23T20:36:25.517Z,20.70
2018-08-23T20:41:28.699Z,20.70
2018-08-23T20:46:31.963Z,20.80
2018-08-23T20:51:35.955Z,20.80
2018-08-23T20:56:39.184Z,20.80
2018-08-23T21:01:42.386Z,20.70
2018-08-23T21:06:45.591Z,20.70
2018-08-23T21:11:48.815Z,20.80
2018-08-23T21:16:52.038Z,20.90
2018-08-23T21:21:55.361Z,21.00
2018-08-23T21:26:58.599Z,21.00
2018-08-23T21:32:01.928Z,21.10
2018-08-23T21:37:05.258Z,21.10
2018-08-23T21:42:09.432Z,21.00
2018-08-23T21:47:12.639Z,21.00
2018-08-23T21:52:15.858Z,20.90
2018-08-23T21:57:19.081Z,21.00
2018-08-23T22:02:23.273Z,21.00
2018-08-23T22:07:26.474Z,21.00
2018-08-23T22:12:29.700Z,20.90
2018-08-23T22:17:32.936Z,20.90
2018-08-23T22:22:36.204Z,20.80
2018-08-23T22:27:39.411Z,20.80
2018-08-23T22:32:42.633Z,20.40
2018-08-23T22:37:45.886Z,19.50
2018-08-23T22:42:49.128Z,18.60
2018-08-23T22:47:52.351Z,18.00
2018-08-23T22:52:55.650Z,17.70
2018-08-23T22:57:58.846Z,17.60
2018-08-23T23:03:02.281Z,17.40
2018-08-23T23:08:07.628Z,17.40
2018-08-23T23:13:10.843Z,17.30
2018-08-23T23:18:13.981Z,17.30
2018-08-23T23:23:17.183Z,17.10
2018-08-23T23:28:20.350Z,17.00
2018-08-23T23:33:23.627Z,16.90
2018-08-23T23:38:26.848Z,16.60
2018-08-23T23:43:30.064Z,16.50
2018-08-23T23:48:34.575Z,16.60
2018-08-23T23:53:38.180Z,16.60
2018-08-23T23:58:41.446Z,16.50
